sensor_id;sensor_type;location;lat;lon;timestamp;temperature;humidity
28835;DHT22;15969;51.536;11.884;2023-05-07T00:02:22;12.10;99.90
28835;DHT22;15969;51.536;11.884;2023-05-07T00:04:48;12.20;99.90
28835;DHT22;15969;51.536;11.884;2023-05-07T00:07:14;12.20;99.90
28835;DHT22;15969;51.536;11.884;2023-05-07T00:09:40;12.20;99.90
28835;DHT22;15969;51.536;11.884;2023-05-07T00:12:07;12.20;99.90
28835;DHT22;15969;51.536;11.884;2023-05-07T00:14:32;12.10;99.90
28835;DHT22;15969;51.536;11.884;2023-05-07T00:16:58;12.10;99.90
28835;DHT22;15969;51.536;11.884;2023-05-07T00:19:24;12.00;99.90
28835;DHT22;15969;51.536;11.884;2023-05-07T00:21:49;12.00;99.90
28835;DHT22;15969;51.536;11.884;2023-05-07T00:24:15;12.00;99.90
28835;DHT22;15969;51.536;11.884;2023-05-07T00:26:41;12.00;99.90
28835;DHT22;15969;51.536;11.884;2023-05-07T00:29:07;12.00;99.90
28835;DHT22;15969;51.536;11.884;2023-05-07T00:31:32;12.00;99.90
28835;DHT22;15969;51.536;11.884;2023-05-07T00:33:58;12.00;99.90
28835;DHT22;15969;51.536;11.884;2023-05-07T00:36:24;12.00;99.90
28835;DHT22;15969;51.536;11.884;2023-05-07T00:38:49;11.80;99.90
28835;DHT22;15969;51.536;11.884;2023-05-07T00:41:15;11.80;99.90
28835;DHT22;15969;51.536;11.884;2023-05-07T00:43:41;11.80;99.90
28835;DHT22;15969;51.536;11.884;2023-05-07T00:46:06;11.80;99.90
28835;DHT22;15969;51.536;11.884;2023-05-07T00:48:32;11.80;99.90
28835;DHT22;15969;51.536;11.884;2023-05-07T00:50:58;11.90;99.90
28835;DHT22;15969;51.536;11.884;2023-05-07T00:53:23;11.80;99.90
28835;DHT22;15969;51.536;11.884;2023-05-07T00:55:49;11.80;99.90
28835;DHT22;15969;51.536;11.884;2023-05-07T00:58:16;11.80;99.90
28835;DHT22;15969;51.536;11.884;2023-05-07T01:00:41;11.70;99.90
28835;DHT22;15969;51.536;11.884;2023-05-07T01:03:07;11.80;99.90
28835;DHT22;15969;51.536;11.884;2023-05-07T01:05:33;11.70;99.90
28835;DHT22;15969;51.536;11.884;2023-05-07T01:07:59;11.70;99.90
28835;DHT22;15969;51.536;11.884;2023-05-07T01:10:25;11.70;99.90
28835;DHT22;15969;51.536;11.884;2023-05-07T01:12:51;11.70;99.90
28835;DHT22;15969;51.536;11.884;2023-05-07T01:15:18;11.70;99.90
28835;DHT22;15969;51.536;11.884;2023-05-07T01:17:44;11.70;99.90
28835;DHT22;15969;51.536;11.884;2023-05-07T01:20:10;11.70;99.90
28835;DHT22;15969;51.536;11.884;2023-05-07T01:22:39;11.70;99.90
28835;DHT22;15969;51.536;11.884;2023-05-07T01:25:06;11.70;99.90
28835;DHT22;15969;51.536;11.884;2023-05-07T01:27:33;11.70;99.90
28835;DHT22;15969;51.536;11.884;2023-05-07T01:30:00;11.70;99.90
28835;DHT22;15969;51.536;11.884;2023-05-07T01:33:06;11.70;99.90
28835;DHT22;15969;51.536;11.884;2023-05-07T01:35:38;11.70;99.90
28835;DHT22;15969;51.536;11.884;2023-05-07T01:38:06;11.70;99.90
28835;DHT22;15969;51.536;11.884;2023-05-07T01:40:32;11.70;99.90
28835;DHT22;15969;51.536;11.884;2023-05-07T01:43:00;11.70;99.90
28835;DHT22;15969;51.536;11.884;2023-05-07T01:45:27;11.70;99.90
28835;DHT22;15969;51.536;11.884;2023-05-07T01:47:54;11.70;99.90
28835;DHT22;15969;51.536;11.884;2023-05-07T01:50:20;11.70;99.90
28835;DHT22;15969;51.536;11.884;2023-05-07T01:52:47;11.70;99.90
28835;DHT22;15969;51.536;11.884;2023-05-07T01:55:13;11.70;99.90
28835;DHT22;15969;51.536;11.884;2023-05-07T01:57:38;11.70;99.90
28835;DHT22;15969;51.536;11.884;2023-05-07T02:00:04;11.70;99.90
28835;DHT22;15969;51.536;11.884;2023-05-07T02:02:30;11.70;99.90
28835;DHT22;15969;51.536;11.884;2023-05-07T02:04:56;11.70;99.90
28835;DHT22;15969;51.536;11.884;2023-05-07T02:07:22;11.60;99.90
28835;DHT22;15969;51.536;11.884;2023-05-07T02:09:48;11.60;99.90
28835;DHT22;15969;51.536;11.884;2023-05-07T02:12:13;11.60;99.90
28835;DHT22;15969;51.536;11.884;2023-05-07T02:14:39;11.60;99.90
28835;DHT22;15969;51.536;11.884;2023-05-07T02:17:05;11.50;99.90
28835;DHT22;15969;51.536;11.884;2023-05-07T02:19:31;11.50;99.90
28835;DHT22;15969;51.536;11.884;2023-05-07T02:21:56;11.60;99.90
28835;DHT22;15969;51.536;11.884;2023-05-07T02:24:22;11.60;99.90
28835;DHT22;15969;51.536;11.884;2023-05-07T02:26:48;11.60;99.90
28835;DHT22;15969;51.536;11.884;2023-05-07T02:29:13;11.60;99.90
28835;DHT22;15969;51.536;11.884;2023-05-07T02:31:39;11.60;99.90
28835;DHT22;15969;51.536;11.884;2023-05-07T02:34:05;11.50;99.90
28835;DHT22;15969;51.536;11.884;2023-05-07T02:36:30;11.50;99.90
28835;DHT22;15969;51.536;11.884;2023-05-07T02:38:56;11.50;99.90
28835;DHT22;15969;51.536;11.884;2023-05-07T02:41:22;11.50;99.90
28835;DHT22;15969;51.536;11.884;2023-05-07T02:43:47;11.50;99.90
28835;DHT22;15969;51.536;11.884;2023-05-07T02:46:13;11.60;99.90
28835;DHT22;15969;51.536;11.884;2023-05-07T02:48:39;11.60;99.90
28835;DHT22;15969;51.536;11.884;2023-05-07T02:51:04;11.60;99.90
28835;DHT22;15969;51.536;11.884;2023-05-07T02:53:30;11.60;99.90
28835;DHT22;15969;51.536;11.884;2023-05-07T02:55:57;11.60;99.90
28835;DHT22;15969;51.536;11.884;2023-05-07T02:58:25;11.60;99.90
28835;DHT22;15969;51.536;11.884;2023-05-07T03:00:51;11.60;99.90
28835;DHT22;15969;51.536;11.884;2023-05-07T03:03:17;11.60;99.90
28835;DHT22;15969;51.536;11.884;2023-05-07T03:05:43;11.60;99.90
28835;DHT22;15969;51.536;11.884;2023-05-07T03:08:09;11.60;99.90
28835;DHT22;15969;51.536;11.884;2023-05-07T03:10:35;11.60;99.90
28835;DHT22;15969;51.536;11.884;2023-05-07T03:13:02;11.60;99.90
28835;DHT22;15969;51.536;11.884;2023-05-07T03:15:28;11.60;99.90
28835;DHT22;15969;51.536;11.884;2023-05-07T03:17:53;11.60;99.90
28835;DHT22;15969;51.536;11.884;2023-05-07T03:20:19;11.60;99.90
28835;DHT22;15969;51.536;11.884;2023-05-07T03:22:45;11.60;99.90
28835;DHT22;15969;51.536;11.884;2023-05-07T03:25:11;11.60;99.90
28835;DHT22;15969;51.536;11.884;2023-05-07T03:27:36;11.60;99.90
28835;DHT22;15969;51.536;11.884;2023-05-07T03:30:03;11.50;99.90
28835;DHT22;15969;51.536;11.884;2023-05-07T03:32:30;11.50;99.90
28835;DHT22;15969;51.536;11.884;2023-05-07T03:34:55;11.50;99.90
28835;DHT22;15969;51.536;11.884;2023-05-07T03:37:21;11.60;99.90
28835;DHT22;15969;51.536;11.884;2023-05-07T03:39:47;11.50;99.90
28835;DHT22;15969;51.536;11.884;2023-05-07T03:42:13;11.50;99.90
28835;DHT22;15969;51.536;11.884;2023-05-07T03:44:38;11.50;99.90
28835;DHT22;15969;51.536;11.884;2023-05-07T03:47:04;11.50;99.90
28835;DHT22;15969;51.536;11.884;2023-05-07T03:49:30;11.50;99.90
28835;DHT22;15969;51.536;11.884;2023-05-07T03:51:55;11.60;99.90
28835;DHT22;15969;51.536;11.884;2023-05-07T03:54:21;11.60;99.90
28835;DHT22;15969;51.536;11.884;2023-05-07T03:56:47;11.60;99.90
28835;DHT22;15969;51.536;11.884;2023-05-07T03:59:13;11.60;99.90
28835;DHT22;15969;51.536;11.884;2023-05-07T04:01:39;11.60;99.90
28835;DHT22;15969;51.536;11.884;2023-05-07T04:04:05;11.60;99.90
28835;DHT22;15969;51.536;11.884;2023-05-07T04:06:31;11.60;99.90
28835;DHT22;15969;51.536;11.884;2023-05-07T04:08:57;11.60;99.90
28835;DHT22;15969;51.536;11.884;2023-05-07T04:11:23;11.60;99.90
28835;DHT22;15969;51.536;11.884;2023-05-07T04:13:48;11.60;99.90
28835;DHT22;15969;51.536;11.884;2023-05-07T04:16:14;11.60;99.90
28835;DHT22;15969;51.536;11.884;2023-05-07T04:18:40;11.60;99.90
28835;DHT22;15969;51.536;11.884;2023-05-07T04:21:14;11.60;99.90
28835;DHT22;15969;51.536;11.884;2023-05-07T04:23:44;11.70;99.90
28835;DHT22;15969;51.536;11.884;2023-05-07T04:26:09;11.60;99.90
28835;DHT22;15969;51.536;11.884;2023-05-07T04:28:35;11.60;99.90
28835;DHT22;15969;51.536;11.884;2023-05-07T04:31:01;11.60;99.90
28835;DHT22;15969;51.536;11.884;2023-05-07T04:33:27;11.60;99.90
28835;DHT22;15969;51.536;11.884;2023-05-07T04:35:52;11.60;99.90
28835;DHT22;15969;51.536;11.884;2023-05-07T04:38:18;11.60;99.90
28835;DHT22;15969;51.536;11.884;2023-05-07T04:40:44;11.70;99.90
28835;DHT22;15969;51.536;11.884;2023-05-07T04:43:10;11.70;99.90
28835;DHT22;15969;51.536;11.884;2023-05-07T04:45:36;11.70;99.90
28835;DHT22;15969;51.536;11.884;2023-05-07T04:48:02;11.70;99.90
28835;DHT22;15969;51.536;11.884;2023-05-07T04:50:27;11.70;99.90
28835;DHT22;15969;51.536;11.884;2023-05-07T04:52:53;11.70;99.90
28835;DHT22;15969;51.536;11.884;2023-05-07T04:55:19;11.70;99.90
28835;DHT22;15969;51.536;11.884;2023-05-07T04:57:45;11.70;99.90
28835;DHT22;15969;51.536;11.884;2023-05-07T05:00:11;11.70;99.90
28835;DHT22;15969;51.536;11.884;2023-05-07T05:02:40;11.70;99.90
28835;DHT22;15969;51.536;11.884;2023-05-07T05:05:06;11.80;99.90
28835;DHT22;15969;51.536;11.884;2023-05-07T05:07:32;11.90;99.90
28835;DHT22;15969;51.536;11.884;2023-05-07T05:09:58;11.90;99.90
28835;DHT22;15969;51.536;11.884;2023-05-07T05:12:23;11.90;99.90
28835;DHT22;15969;51.536;11.884;2023-05-07T05:14:49;11.90;99.90
28835;DHT22;15969;51.536;11.884;2023-05-07T05:17:15;11.90;99.90
28835;DHT22;15969;51.536;11.884;2023-05-07T05:19:40;11.90;99.90
28835;DHT22;15969;51.536;11.884;2023-05-07T05:22:06;11.90;99.90
28835;DHT22;15969;51.536;11.884;2023-05-07T05:24:32;11.90;99.90
28835;DHT22;15969;51.536;11.884;2023-05-07T05:26:58;12.00;99.90
28835;DHT22;15969;51.536;11.884;2023-05-07T05:29:26;12.00;99.90
28835;DHT22;15969;51.536;11.884;2023-05-07T05:31:52;12.00;99.90
28835;DHT22;15969;51.536;11.884;2023-05-07T05:34:17;12.00;99.90
28835;DHT22;15969;51.536;11.884;2023-05-07T05:36:45;12.00;99.90
28835;DHT22;15969;51.536;11.884;2023-05-07T05:39:10;12.00;99.90
28835;DHT22;15969;51.536;11.884;2023-05-07T05:41:36;12.00;99.90
28835;DHT22;15969;51.536;11.884;2023-05-07T05:44:02;12.00;99.90
28835;DHT22;15969;51.536;11.884;2023-05-07T05:46:27;12.00;99.90
28835;DHT22;15969;51.536;11.884;2023-05-07T05:48:53;12.00;99.90
28835;DHT22;15969;51.536;11.884;2023-05-07T05:51:20;12.00;99.90
28835;DHT22;15969;51.536;11.884;2023-05-07T05:53:46;12.00;99.90
28835;DHT22;15969;51.536;11.884;2023-05-07T05:56:11;12.00;99.90
28835;DHT22;15969;51.536;11.884;2023-05-07T05:58:37;12.00;99.90
28835;DHT22;15969;51.536;11.884;2023-05-07T06:01:03;12.10;99.90
28835;DHT22;15969;51.536;11.884;2023-05-07T06:03:29;12.10;99.90
28835;DHT22;15969;51.536;11.884;2023-05-07T06:05:54;12.20;99.90
28835;DHT22;15969;51.536;11.884;2023-05-07T06:08:20;12.20;99.90
28835;DHT22;15969;51.536;11.884;2023-05-07T06:10:46;12.30;99.90
28835;DHT22;15969;51.536;11.884;2023-05-07T06:13:11;12.30;99.90
28835;DHT22;15969;51.536;11.884;2023-05-07T06:15:37;12.40;99.90
28835;DHT22;15969;51.536;11.884;2023-05-07T06:18:03;12.40;99.90
28835;DHT22;15969;51.536;11.884;2023-05-07T06:20:28;12.50;99.90
28835;DHT22;15969;51.536;11.884;2023-05-07T06:22:54;12.40;99.90
28835;DHT22;15969;51.536;11.884;2023-05-07T06:25:20;12.40;99.90
28835;DHT22;15969;51.536;11.884;2023-05-07T06:27:45;12.40;99.90
28835;DHT22;15969;51.536;11.884;2023-05-07T06:30:11;12.50;99.90
28835;DHT22;15969;51.536;11.884;2023-05-07T06:32:37;12.40;99.90
28835;DHT22;15969;51.536;11.884;2023-05-07T06:35:03;12.50;99.90
28835;DHT22;15969;51.536;11.884;2023-05-07T06:37:28;12.40;99.90
28835;DHT22;15969;51.536;11.884;2023-05-07T06:39:54;12.40;99.90
28835;DHT22;15969;51.536;11.884;2023-05-07T06:42:20;12.40;99.90
28835;DHT22;15969;51.536;11.884;2023-05-07T06:44:45;12.40;99.90
28835;DHT22;15969;51.536;11.884;2023-05-07T06:47:11;12.40;99.90
28835;DHT22;15969;51.536;11.884;2023-05-07T06:49:37;12.40;99.90
28835;DHT22;15969;51.536;11.884;2023-05-07T06:52:03;12.40;99.90
28835;DHT22;15969;51.536;11.884;2023-05-07T06:54:29;12.40;99.90
28835;DHT22;15969;51.536;11.884;2023-05-07T06:56:54;12.40;99.90
28835;DHT22;15969;51.536;11.884;2023-05-07T06:59:20;12.50;99.90
28835;DHT22;15969;51.536;11.884;2023-05-07T07:01:46;12.40;99.90
28835;DHT22;15969;51.536;11.884;2023-05-07T07:04:11;12.40;99.90
28835;DHT22;15969;51.536;11.884;2023-05-07T07:06:37;12.50;99.90
28835;DHT22;15969;51.536;11.884;2023-05-07T07:09:03;12.50;99.90
28835;DHT22;15969;51.536;11.884;2023-05-07T07:11:28;12.50;99.90
28835;DHT22;15969;51.536;11.884;2023-05-07T07:13:54;12.50;99.90
28835;DHT22;15969;51.536;11.884;2023-05-07T07:16:21;12.50;99.90
28835;DHT22;15969;51.536;11.884;2023-05-07T07:18:47;12.40;99.90
28835;DHT22;15969;51.536;11.884;2023-05-07T07:21:12;12.60;99.90
28835;DHT22;15969;51.536;11.884;2023-05-07T07:23:38;12.60;99.90
28835;DHT22;15969;51.536;11.884;2023-05-07T07:26:04;12.60;99.90
28835;DHT22;15969;51.536;11.884;2023-05-07T07:28:29;12.60;99.90
28835;DHT22;15969;51.536;11.884;2023-05-07T07:30:55;12.60;99.90
28835;DHT22;15969;51.536;11.884;2023-05-07T07:33:21;12.70;99.90
28835;DHT22;15969;51.536;11.884;2023-05-07T07:35:46;12.70;99.90
28835;DHT22;15969;51.536;11.884;2023-05-07T07:38:12;12.80;99.90
28835;DHT22;15969;51.536;11.884;2023-05-07T07:40:38;12.70;99.90
28835;DHT22;15969;51.536;11.884;2023-05-07T07:43:04;12.60;99.90
28835;DHT22;15969;51.536;11.884;2023-05-07T07:45:30;12.60;99.90
28835;DHT22;15969;51.536;11.884;2023-05-07T07:47:55;12.70;99.90
28835;DHT22;15969;51.536;11.884;2023-05-07T07:50:21;12.70;99.90
28835;DHT22;15969;51.536;11.884;2023-05-07T07:52:48;12.70;99.90
28835;DHT22;15969;51.536;11.884;2023-05-07T07:55:14;12.70;99.90
28835;DHT22;15969;51.536;11.884;2023-05-07T07:57:43;12.70;99.90
28835;DHT22;15969;51.536;11.884;2023-05-07T08:00:09;12.70;99.90
28835;DHT22;15969;51.536;11.884;2023-05-07T08:02:35;12.70;99.90
28835;DHT22;15969;51.536;11.884;2023-05-07T08:05:00;12.70;99.90
28835;DHT22;15969;51.536;11.884;2023-05-07T08:07:26;12.70;99.90
28835;DHT22;15969;51.536;11.884;2023-05-07T08:09:52;12.60;99.90
28835;DHT22;15969;51.536;11.884;2023-05-07T08:12:18;12.60;99.90
28835;DHT22;15969;51.536;11.884;2023-05-07T08:14:44;12.70;99.90
28835;DHT22;15969;51.536;11.884;2023-05-07T08:17:09;12.70;99.90
28835;DHT22;15969;51.536;11.884;2023-05-07T08:19:35;12.80;99.90
28835;DHT22;15969;51.536;11.884;2023-05-07T08:22:02;12.70;99.90
28835;DHT22;15969;51.536;11.884;2023-05-07T08:24:28;12.80;99.90
28835;DHT22;15969;51.536;11.884;2023-05-07T08:26:54;12.80;99.90
28835;DHT22;15969;51.536;11.884;2023-05-07T08:29:19;12.90;99.90
28835;DHT22;15969;51.536;11.884;2023-05-07T08:31:45;12.90;99.90
28835;DHT22;15969;51.536;11.884;2023-05-07T08:34:11;13.00;99.90
28835;DHT22;15969;51.536;11.884;2023-05-07T08:36:36;13.00;99.90
28835;DHT22;15969;51.536;11.884;2023-05-07T08:39:02;13.00;99.90
28835;DHT22;15969;51.536;11.884;2023-05-07T08:41:28;12.90;99.90
28835;DHT22;15969;51.536;11.884;2023-05-07T08:43:58;13.00;99.90
28835;DHT22;15969;51.536;11.884;2023-05-07T08:46:31;13.10;99.90
28835;DHT22;15969;51.536;11.884;2023-05-07T08:48:57;13.10;99.90
28835;DHT22;15969;51.536;11.884;2023-05-07T08:51:23;13.20;99.90
28835;DHT22;15969;51.536;11.884;2023-05-07T08:53:49;13.20;99.90
28835;DHT22;15969;51.536;11.884;2023-05-07T08:56:15;13.20;99.90
28835;DHT22;15969;51.536;11.884;2023-05-07T08:58:43;13.20;99.90
28835;DHT22;15969;51.536;11.884;2023-05-07T09:01:14;13.30;99.90
28835;DHT22;15969;51.536;11.884;2023-05-07T09:03:42;13.40;99.90
28835;DHT22;15969;51.536;11.884;2023-05-07T09:06:09;13.40;99.90
28835;DHT22;15969;51.536;11.884;2023-05-07T09:08:35;13.40;99.90
28835;DHT22;15969;51.536;11.884;2023-05-07T09:11:01;13.50;99.90
28835;DHT22;15969;51.536;11.884;2023-05-07T09:13:27;13.60;99.90
28835;DHT22;15969;51.536;11.884;2023-05-07T09:15:54;13.60;99.90
28835;DHT22;15969;51.536;11.884;2023-05-07T09:18:20;13.60;99.90
28835;DHT22;15969;51.536;11.884;2023-05-07T09:20:45;13.70;99.90
28835;DHT22;15969;51.536;11.884;2023-05-07T09:23:11;13.70;99.90
28835;DHT22;15969;51.536;11.884;2023-05-07T09:25:37;13.70;99.90
28835;DHT22;15969;51.536;11.884;2023-05-07T09:28:04;13.70;99.90
28835;DHT22;15969;51.536;11.884;2023-05-07T09:30:33;13.80;99.90
28835;DHT22;15969;51.536;11.884;2023-05-07T09:32:59;13.70;99.90
28835;DHT22;15969;51.536;11.884;2023-05-07T09:35:26;13.80;99.90
28835;DHT22;15969;51.536;11.884;2023-05-07T09:37:59;13.70;99.90
28835;DHT22;15969;51.536;11.884;2023-05-07T09:40:29;13.70;99.90
28835;DHT22;15969;51.536;11.884;2023-05-07T09:42:56;13.70;99.90
28835;DHT22;15969;51.536;11.884;2023-05-07T09:45:31;13.60;99.90
28835;DHT22;15969;51.536;11.884;2023-05-07T09:47:58;13.70;99.90
28835;DHT22;15969;51.536;11.884;2023-05-07T09:50:29;13.60;99.90
28835;DHT22;15969;51.536;11.884;2023-05-07T09:53:03;13.60;99.90
28835;DHT22;15969;51.536;11.884;2023-05-07T09:55:29;13.70;99.90
28835;DHT22;15969;51.536;11.884;2023-05-07T09:57:55;13.70;99.90
28835;DHT22;15969;51.536;11.884;2023-05-07T10:00:22;13.70;99.90
28835;DHT22;15969;51.536;11.884;2023-05-07T10:02:50;13.70;99.90
28835;DHT22;15969;51.536;11.884;2023-05-07T10:05:21;13.60;99.90
28835;DHT22;15969;51.536;11.884;2023-05-07T10:07:48;13.60;99.90
28835;DHT22;15969;51.536;11.884;2023-05-07T10:10:14;13.70;99.90
28835;DHT22;15969;51.536;11.884;2023-05-07T10:12:41;13.80;99.90
28835;DHT22;15969;51.536;11.884;2023-05-07T10:15:11;13.90;99.90
28835;DHT22;15969;51.536;11.884;2023-05-07T10:17:38;13.90;99.90
28835;DHT22;15969;51.536;11.884;2023-05-07T10:20:06;13.80;99.90
28835;DHT22;15969;51.536;11.884;2023-05-07T10:22:41;13.90;99.90
28835;DHT22;15969;51.536;11.884;2023-05-07T10:25:17;13.90;99.90
28835;DHT22;15969;51.536;11.884;2023-05-07T10:27:49;13.80;99.90
28835;DHT22;15969;51.536;11.884;2023-05-07T10:33:24;13.70;99.90
28835;DHT22;15969;51.536;11.884;2023-05-07T10:35:57;13.70;99.90
28835;DHT22;15969;51.536;11.884;2023-05-07T10:38:26;13.70;99.90
28835;DHT22;15969;51.536;11.884;2023-05-07T10:40:52;13.70;99.90
28835;DHT22;15969;51.536;11.884;2023-05-07T10:43:18;13.70;99.90
28835;DHT22;15969;51.536;11.884;2023-05-07T10:46:10;13.70;99.90
28835;DHT22;15969;51.536;11.884;2023-05-07T10:51:27;13.90;99.90
28835;DHT22;15969;51.536;11.884;2023-05-07T10:54:18;14.00;99.90
28835;DHT22;15969;51.536;11.884;2023-05-07T10:56:44;14.00;99.90
28835;DHT22;15969;51.536;11.884;2023-05-07T11:01:58;14.10;99.90
28835;DHT22;15969;51.536;11.884;2023-05-07T11:04:27;14.10;99.90
28835;DHT22;15969;51.536;11.884;2023-05-07T11:07:29;14.00;99.90
28835;DHT22;15969;51.536;11.884;2023-05-07T11:09:57;14.00;99.90
28835;DHT22;15969;51.536;11.884;2023-05-07T11:15:06;14.00;99.90
28835;DHT22;15969;51.536;11.884;2023-05-07T11:17:34;14.00;99.90
28835;DHT22;15969;51.536;11.884;2023-05-07T11:20:01;14.10;99.90
28835;DHT22;15969;51.536;11.884;2023-05-07T11:25:00;14.20;99.90
28835;DHT22;15969;51.536;11.884;2023-05-07T11:27:26;14.20;99.90
28835;DHT22;15969;51.536;11.884;2023-05-07T11:29:52;14.30;99.90
28835;DHT22;15969;51.536;11.884;2023-05-07T11:32:26;14.30;99.90
28835;DHT22;15969;51.536;11.884;2023-05-07T11:34:53;14.40;99.90
28835;DHT22;15969;51.536;11.884;2023-05-07T11:37:21;14.40;99.90
28835;DHT22;15969;51.536;11.884;2023-05-07T11:39:48;14.40;99.90
28835;DHT22;15969;51.536;11.884;2023-05-07T11:42:31;14.40;99.90
28835;DHT22;15969;51.536;11.884;2023-05-07T11:45:01;14.40;99.90
28835;DHT22;15969;51.536;11.884;2023-05-07T11:47:30;14.30;99.90
28835;DHT22;15969;51.536;11.884;2023-05-07T11:49:56;14.40;99.90
28835;DHT22;15969;51.536;11.884;2023-05-07T11:52:23;14.40;99.90
28835;DHT22;15969;51.536;11.884;2023-05-07T11:54:57;14.50;99.90
28835;DHT22;15969;51.536;11.884;2023-05-07T11:57:24;14.60;99.90
28835;DHT22;15969;51.536;11.884;2023-05-07T11:59:58;14.60;99.90
28835;DHT22;15969;51.536;11.884;2023-05-07T12:02:24;14.70;99.90
28835;DHT22;15969;51.536;11.884;2023-05-07T12:04:54;14.70;99.90
28835;DHT22;15969;51.536;11.884;2023-05-07T12:07:20;14.70;99.90
28835;DHT22;15969;51.536;11.884;2023-05-07T12:09:47;14.70;99.90
28835;DHT22;15969;51.536;11.884;2023-05-07T12:12:13;14.70;99.90
28835;DHT22;15969;51.536;11.884;2023-05-07T12:14:43;14.60;99.90
28835;DHT22;15969;51.536;11.884;2023-05-07T12:17:11;14.40;99.90
28835;DHT22;15969;51.536;11.884;2023-05-07T12:19:39;14.40;99.90
28835;DHT22;15969;51.536;11.884;2023-05-07T12:22:10;14.50;99.90
28835;DHT22;15969;51.536;11.884;2023-05-07T12:24:46;14.60;99.90
28835;DHT22;15969;51.536;11.884;2023-05-07T12:27:16;14.70;99.90
28835;DHT22;15969;51.536;11.884;2023-05-07T12:29:46;14.70;99.90
28835;DHT22;15969;51.536;11.884;2023-05-07T12:32:20;14.70;99.90
28835;DHT22;15969;51.536;11.884;2023-05-07T12:34:50;14.90;99.90
28835;DHT22;15969;51.536;11.884;2023-05-07T12:37:16;15.00;99.90
28835;DHT22;15969;51.536;11.884;2023-05-07T12:39:47;15.10;99.90
28835;DHT22;15969;51.536;11.884;2023-05-07T12:42:19;15.10;99.90
28835;DHT22;15969;51.536;11.884;2023-05-07T12:44:48;15.10;99.90
28835;DHT22;15969;51.536;11.884;2023-05-07T12:47:15;15.20;99.90
28835;DHT22;15969;51.536;11.884;2023-05-07T12:49:41;15.20;99.90
28835;DHT22;15969;51.536;11.884;2023-05-07T12:52:07;15.10;99.90
28835;DHT22;15969;51.536;11.884;2023-05-07T12:54:34;15.00;99.90
28835;DHT22;15969;51.536;11.884;2023-05-07T12:57:07;15.00;99.90
28835;DHT22;15969;51.536;11.884;2023-05-07T12:59:41;15.00;99.90
28835;DHT22;15969;51.536;11.884;2023-05-07T13:02:08;15.10;99.90
28835;DHT22;15969;51.536;11.884;2023-05-07T13:04:34;15.10;99.90
28835;DHT22;15969;51.536;11.884;2023-05-07T13:07:00;15.10;99.90
28835;DHT22;15969;51.536;11.884;2023-05-07T13:09:28;15.10;99.90
28835;DHT22;15969;51.536;11.884;2023-05-07T13:11:57;15.20;99.90
28835;DHT22;15969;51.536;11.884;2023-05-07T13:14:25;15.10;99.90
28835;DHT22;15969;51.536;11.884;2023-05-07T13:16:50;15.10;99.90
28835;DHT22;15969;51.536;11.884;2023-05-07T13:19:16;15.00;99.90
28835;DHT22;15969;51.536;11.884;2023-05-07T13:21:42;15.10;99.90
28835;DHT22;15969;51.536;11.884;2023-05-07T13:24:08;15.10;99.90
28835;DHT22;15969;51.536;11.884;2023-05-07T13:26:34;15.00;99.90
28835;DHT22;15969;51.536;11.884;2023-05-07T13:29:00;15.00;99.90
28835;DHT22;15969;51.536;11.884;2023-05-07T13:31:26;15.10;99.90
28835;DHT22;15969;51.536;11.884;2023-05-07T13:33:51;15.10;99.90
28835;DHT22;15969;51.536;11.884;2023-05-07T13:36:17;15.20;99.90
28835;DHT22;15969;51.536;11.884;2023-05-07T13:38:43;15.30;99.90
28835;DHT22;15969;51.536;11.884;2023-05-07T13:41:09;15.40;99.90
28835;DHT22;15969;51.536;11.884;2023-05-07T13:43:35;15.50;99.90
28835;DHT22;15969;51.536;11.884;2023-05-07T13:46:00;15.40;99.90
28835;DHT22;15969;51.536;11.884;2023-05-07T13:48:26;15.40;99.90
28835;DHT22;15969;51.536;11.884;2023-05-07T13:50:53;15.50;99.90
28835;DHT22;15969;51.536;11.884;2023-05-07T13:53:19;15.80;99.90
28835;DHT22;15969;51.536;11.884;2023-05-07T13:55:45;16.10;99.90
28835;DHT22;15969;51.536;11.884;2023-05-07T13:58:10;16.30;99.80
28835;DHT22;15969;51.536;11.884;2023-05-07T14:00:36;16.20;99.60
28835;DHT22;15969;51.536;11.884;2023-05-07T14:03:03;16.20;99.60
28835;DHT22;15969;51.536;11.884;2023-05-07T14:05:29;16.10;99.20
28835;DHT22;15969;51.536;11.884;2023-05-07T14:07:57;16.00;99.70
28835;DHT22;15969;51.536;11.884;2023-05-07T14:10:23;16.00;99.90
28835;DHT22;15969;51.536;11.884;2023-05-07T14:12:49;16.10;99.70
28835;DHT22;15969;51.536;11.884;2023-05-07T14:15:15;16.10;99.50
28835;DHT22;15969;51.536;11.884;2023-05-07T14:17:41;16.00;99.70
28835;DHT22;15969;51.536;11.884;2023-05-07T14:20:08;16.10;99.70
28835;DHT22;15969;51.536;11.884;2023-05-07T14:22:35;16.10;99.70
28835;DHT22;15969;51.536;11.884;2023-05-07T14:25:01;16.10;99.90
28835;DHT22;15969;51.536;11.884;2023-05-07T14:27:27;16.20;99.90
28835;DHT22;15969;51.536;11.884;2023-05-07T14:29:52;16.20;99.90
28835;DHT22;15969;51.536;11.884;2023-05-07T14:32:18;16.10;99.90
28835;DHT22;15969;51.536;11.884;2023-05-07T14:34:44;16.10;99.90
28835;DHT22;15969;51.536;11.884;2023-05-07T14:37:10;16.00;99.90
28835;DHT22;15969;51.536;11.884;2023-05-07T14:39:36;15.90;99.90
28835;DHT22;15969;51.536;11.884;2023-05-07T14:42:02;15.80;99.80
28835;DHT22;15969;51.536;11.884;2023-05-07T14:44:27;15.80;99.80
28835;DHT22;15969;51.536;11.884;2023-05-07T14:46:53;15.70;99.90
28835;DHT22;15969;51.536;11.884;2023-05-07T14:49:19;15.60;99.90
28835;DHT22;15969;51.536;11.884;2023-05-07T14:51:46;15.60;99.90
28835;DHT22;15969;51.536;11.884;2023-05-07T14:54:15;15.40;99.40
28835;DHT22;15969;51.536;11.884;2023-05-07T14:56:41;15.50;99.50
28835;DHT22;15969;51.536;11.884;2023-05-07T14:59:08;15.50;99.90
28835;DHT22;15969;51.536;11.884;2023-05-07T15:01:37;15.50;99.90
28835;DHT22;15969;51.536;11.884;2023-05-07T15:04:04;15.50;99.90
28835;DHT22;15969;51.536;11.884;2023-05-07T15:06:30;15.60;99.90
28835;DHT22;15969;51.536;11.884;2023-05-07T15:08:56;15.60;99.70
28835;DHT22;15969;51.536;11.884;2023-05-07T15:11:22;15.70;99.60
28835;DHT22;15969;51.536;11.884;2023-05-07T15:13:47;15.70;99.50
28835;DHT22;15969;51.536;11.884;2023-05-07T15:16:14;15.80;99.80
28835;DHT22;15969;51.536;11.884;2023-05-07T15:18:39;15.70;99.70
28835;DHT22;15969;51.536;11.884;2023-05-07T15:21:05;15.60;99.80
28835;DHT22;15969;51.536;11.884;2023-05-07T15:23:31;15.60;99.40
28835;DHT22;15969;51.536;11.884;2023-05-07T15:25:57;15.60;99.80
28835;DHT22;15969;51.536;11.884;2023-05-07T15:28:22;15.60;99.90